Time;durP1;ratioP1;P1;durP2;ratioP2;P2;SDS_P1;SDS_P2;PMS_P1;PMS_P2;Temp;Humidity;BMP_temperature;BMP_pressure;BME280_temperature;BME280_humidity;BME280_pressure;Samples;Min_cycle;Max_cycle;Signal;HPM_P1;HPM_P2
2021/12/13 00:01:07;;;;;;;61.50;23.25;;;;;;;;;;5069172;28;20057;-71
2021/12/13 00:03:43;;;;;;;73.25;25.13;;;;;;;;;;5070493;28;20132;-72
2021/12/13 00:06:13;;;;;;;69.43;23.60;;;;;;;;;;5070564;28;20059;-72
2021/12/13 00:08:42;;;;;;;56.65;21.60;;;;;;;;;;5070080;28;20056;-71
2021/12/13 00:11:13;;;;;;;62.15;23.35;;;;;;;;;;5069762;28;20494;-71
2021/12/13 00:13:40;;;;;;;80.97;23.38;;;;;;;;;;5069536;28;20057;-72
2021/12/13 00:16:07;;;;;;;57.63;23.08;;;;;;;;;;5069564;28;20063;-72
2021/12/13 00:18:40;;;;;;;66.05;22.77;;;;;;;;;;5069676;28;20053;-71
2021/12/13 00:21:12;;;;;;;48.15;19.98;;;;;;;;;;5069283;28;20056;-72
2021/12/13 00:24:05;;;;;;;56.55;20.30;;;;;;;;;;5070036;28;20407;-71
2021/12/13 00:26:33;;;;;;;59.47;20.75;;;;;;;;;;5066649;28;20053;-71
2021/12/13 00:29:08;;;;;;;55.28;19.58;;;;;;;;;;5069792;28;20093;-72
2021/12/13 00:31:40;;;;;;;45.78;18.38;;;;;;;;;;5069635;28;20975;-72
2021/12/13 00:34:19;;;;;;;60.60;19.52;;;;;;;;;;5069555;28;20061;-72
2021/12/13 00:36:49;;;;;;;55.30;18.65;;;;;;;;;;5069630;28;20061;-73
2021/12/13 00:39:19;;;;;;;55.53;19.17;;;;;;;;;;5069833;28;20052;-74
2021/12/13 00:41:47;;;;;;;52.75;19.02;;;;;;;;;;5068743;28;20063;-72
2021/12/13 00:44:19;;;;;;;49.22;17.63;;;;;;;;;;5069628;28;20147;-73
2021/12/13 00:46:47;;;;;;;46.60;18.23;;;;;;;;;;5068813;28;20099;-72
2021/12/13 00:49:14;;;;;;;59.88;18.83;;;;;;;;;;5069819;28;20110;-72
2021/12/13 00:51:46;;;;;;;51.75;19.90;;;;;;;;;;5068800;28;20060;-72
2021/12/13 00:54:23;;;;;;;58.75;18.83;;;;;;;;;;5069613;28;20045;-71
2021/12/13 00:56:56;;;;;;;46.83;19.40;;;;;;;;;;5067458;28;20136;-71
2021/12/13 00:59:26;;;;;;;52.10;17.20;;;;;;;;;;5069017;28;20060;-72
2021/12/13 01:02:09;;;;;;;60.47;18.00;;;;;;;;;;5069518;28;20057;-71
2021/12/13 01:04:50;;;;;;;46.72;16.63;;;;;;;;;;5069199;28;20511;-71
2021/12/13 01:07:35;;;;;;;42.28;16.67;;;;;;;;;;5069193;28;20049;-72
2021/12/13 01:10:17;;;;;;;59.28;15.90;;;;;;;;;;5069248;28;20057;-72
2021/12/13 01:12:44;;;;;;;44.20;15.20;;;;;;;;;;5069163;28;20053;-72
2021/12/13 01:15:14;;;;;;;50.20;15.60;;;;;;;;;;5068020;28;20055;-72
2021/12/13 01:20:24;;;;;;;;;;;;;;;;;;5068999;28;20091;-71
2021/12/13 01:23:02;;;;;;;42.35;11.40;;;;;;;;;;5067874;28;45471;-71
2021/12/13 01:25:44;;;;;;;43.28;11.73;;;;;;;;;;5068204;28;20063;-71
2021/12/13 01:28:20;;;;;;;37.15;11.95;;;;;;;;;;5068413;28;20057;-72
2021/12/13 01:30:50;;;;;;;27.33;10.35;;;;;;;;;;5068785;28;20503;-72
2021/12/13 01:33:18;;;;;;;25.35;9.63;;;;;;;;;;5068949;28;20107;-71
2021/12/13 01:35:46;;;;;;;26.42;9.63;;;;;;;;;;5069012;28;20051;-73
2021/12/13 01:38:15;;;;;;;30.50;9.30;;;;;;;;;;5069031;28;20053;-71
2021/12/13 01:40:43;;;;;;;21.40;7.85;;;;;;;;;;5067819;28;20055;-72
2021/12/13 01:43:09;;;;;;;;;;;;;;;;;;5068504;28;20057;-72
2021/12/13 01:45:38;;;;;;;38.50;7.95;;;;;;;;;;5067344;28;44214;-72
2021/12/13 01:48:05;;;;;;;23.65;7.43;;;;;;;;;;5068665;28;20084;-72
2021/12/13 01:50:44;;;;;;;20.25;8.25;;;;;;;;;;5068320;28;20151;-72
2021/12/13 01:53:10;;;;;;;;;;;;;;;;;;5068542;28;20057;-71
2021/12/13 01:55:39;;;;;;;19.08;5.88;;;;;;;;;;5067616;28;43608;-72
2021/12/13 01:58:26;;;;;;;14.88;6.07;;;;;;;;;;5067687;28;20057;-72
2021/12/13 02:01:10;;;;;;;17.83;5.60;;;;;;;;;;5067732;28;20057;-71
2021/12/13 02:03:45;;;;;;;18.48;6.15;;;;;;;;;;5067522;28;20048;-72
2021/12/13 02:06:21;;;;;;;19.02;7.28;;;;;;;;;;5068259;28;20100;-72
2021/12/13 02:08:50;;;;;;;19.17;6.18;;;;;;;;;;5066130;28;20141;-71
2021/12/13 02:11:16;;;;;;;14.38;6.05;;;;;;;;;;5068451;28;20084;-72
2021/12/13 02:14:03;;;;;;;21.00;6.68;;;;;;;;;;5068337;28;20061;-71
2021/12/13 02:19:22;;;;;;;15.50;5.57;;;;;;;;;;5067466;28;20060;-72
2021/12/13 02:21:50;;;;;;;19.83;6.75;;;;;;;;;;5068326;28;20049;-72
2021/12/13 02:24:16;;;;;;;19.08;6.43;;;;;;;;;;5067713;28;20059;-72
2021/12/13 02:26:46;;;;;;;18.17;7.00;;;;;;;;;;5067444;28;20063;-72
2021/12/13 02:29:37;;;;;;;19.08;7.43;;;;;;;;;;5067436;28;20077;-72
2021/12/13 02:32:06;;;;;;;19.88;7.15;;;;;;;;;;5067682;28;20053;-71
2021/12/13 02:34:35;;;;;;;13.80;6.95;;;;;;;;;;5067497;28;20056;-72
2021/12/13 02:37:01;;;;;;;;;;;;;;;;;;5068251;28;20052;-72
2021/12/13 02:39:31;;;;;;;18.88;7.50;;;;;;;;;;5067161;28;44437;-71
2021/12/13 02:41:59;;;;;;;16.40;7.20;;;;;;;;;;5067317;28;20053;-72
2021/12/13 02:44:25;;;;;;;;;;;;;;;;;;5067779;28;20087;-72
2021/12/13 02:46:53;;;;;;;20.20;7.00;;;;;;;;;;5066587;28;44597;-72
2021/12/13 02:49:20;;;;;;;25.75;9.27;;;;;;;;;;5067924;28;20056;-72
2021/12/13 02:51:49;;;;;;;27.30;8.30;;;;;;;;;;5067398;28;20063;-73
2021/12/13 02:54:18;;;;;;;20.48;9.10;;;;;;;;;;5067637;28;20057;-72
2021/12/13 02:56:51;;;;;;;27.58;11.50;;;;;;;;;;5067749;28;20593;-71
2021/12/13 02:59:20;;;;;;;23.33;10.70;;;;;;;;;;5066981;28;20052;-72
2021/12/13 03:01:50;;;;;;;28.75;12.77;;;;;;;;;;5067506;28;20671;-71
2021/12/13 03:04:22;;;;;;;27.73;12.00;;;;;;;;;;5067659;28;20052;-73
2021/12/13 03:06:50;;;;;;;30.02;13.80;;;;;;;;;;5067719;28;20057;-72
2021/12/13 03:09:19;;;;;;;27.23;12.20;;;;;;;;;;5067368;28;20495;-72
2021/12/13 03:11:47;;;;;;;32.38;14.02;;;;;;;;;;5066782;28;20103;-72
2021/12/13 03:14:16;;;;;;;34.05;13.98;;;;;;;;;;5067670;28;20446;-71
2021/12/13 03:16:50;;;;;;;31.05;13.70;;;;;;;;;;5067101;28;20554;-71
2021/12/13 03:19:34;;;;;;;32.97;14.02;;;;;;;;;;5068881;28;20053;-71
2021/12/13 03:22:01;;;;;;;42.17;15.55;;;;;;;;;;5070975;28;20053;-72
2021/12/13 03:24:38;;;;;;;30.90;14.10;;;;;;;;;;5069528;28;20059;-71
2021/12/13 03:27:06;;;;;;;40.17;15.85;;;;;;;;;;5070809;28;20061;-72
2021/12/13 03:29:35;;;;;;;41.33;15.63;;;;;;;;;;5070350;28;20179;-71
2021/12/13 03:32:02;;;;;;;34.85;16.05;;;;;;;;;;5070490;28;20056;-72
2021/12/13 03:34:30;;;;;;;39.85;16.42;;;;;;;;;;5070274;28;20490;-72
2021/12/13 03:37:00;;;;;;;56.28;19.17;;;;;;;;;;5070609;28;20136;-71
2021/12/13 03:39:31;;;;;;;38.83;17.10;;;;;;;;;;5070297;28;20075;-72
2021/12/13 03:42:00;;;;;;;41.75;18.10;;;;;;;;;;5069514;28;20068;-72
2021/12/13 03:44:26;;;;;;;;;;;;;;;;;;5070452;28;20057;-72
2021/12/13 03:46:54;;;;;;;37.08;17.25;;;;;;;;;;5068746;28;44428;-71
2021/12/13 03:49:21;;;;;;;42.85;18.42;;;;;;;;;;5069408;28;20053;-71
2021/12/13 03:51:48;;;;;;;51.05;21.05;;;;;;;;;;5070529;28;20045;-72
2021/12/13 03:54:16;;;;;;;52.22;20.75;;;;;;;;;;5070058;28;20057;-72
2021/12/13 03:56:45;;;;;;;48.70;20.05;;;;;;;;;;5070625;28;20144;-72
2021/12/13 03:59:14;;;;;;;45.22;19.33;;;;;;;;;;5070544;28;20053;-72
2021/12/13 04:01:44;;;;;;;45.13;19.33;;;;;;;;;;5070373;28;20053;-73
2021/12/13 04:04:15;;;;;;;41.78;19.83;;;;;;;;;;5069439;28;20483;-72
2021/12/13 04:06:43;;;;;;;45.22;19.85;;;;;;;;;;5070092;28;20498;-73
2021/12/13 04:09:11;;;;;;;44.05;20.02;;;;;;;;;;5070477;28;20049;-73
2021/12/13 04:11:40;;;;;;;43.10;20.57;;;;;;;;;;5069286;28;20053;-72
2021/12/13 04:14:13;;;;;;;48.83;21.45;;;;;;;;;;5069299;28;20268;-72
2021/12/13 04:16:50;;;;;;;39.13;19.42;;;;;;;;;;5069910;28;20048;-73
2021/12/13 04:19:20;;;;;;;45.33;19.50;;;;;;;;;;5069723;28;20522;-72
2021/12/13 04:21:52;;;;;;;40.50;20.60;;;;;;;;;;5068607;28;20355;-72
2021/12/13 04:24:20;;;;;;;43.20;20.73;;;;;;;;;;5068969;28;20049;-72
2021/12/13 04:26:49;;;;;;;37.72;19.00;;;;;;;;;;5069973;28;20067;-72
2021/12/13 04:29:20;;;;;;;37.25;19.08;;;;;;;;;;5069377;28;20529;-72
2021/12/13 04:31:46;;;;;;;33.42;18.50;;;;;;;;;;5069843;28;20056;-73
2021/12/13 04:34:13;;;;;;;47.63;21.27;;;;;;;;;;5070050;28;20049;-72
2021/12/13 04:36:42;;;;;;;45.08;21.55;;;;;;;;;;5068862;28;20092;-73
2021/12/13 04:39:18;;;;;;;46.63;21.83;;;;;;;;;;5069499;28;20472;-72
2021/12/13 04:41:53;;;;;;;56.70;22.27;;;;;;;;;;5069217;28;20063;-73
2021/12/13 04:44:29;;;;;;;46.30;21.80;;;;;;;;;;5070053;28;20045;-73
2021/12/13 04:46:56;;;;;;;40.92;20.92;;;;;;;;;;5069290;28;20658;-73
2021/12/13 04:49:24;;;;;;;42.28;20.30;;;;;;;;;;5069287;28;20516;-73
2021/12/13 04:51:59;;;;;;;46.08;21.65;;;;;;;;;;5069053;28;20085;-72
2021/12/13 04:54:27;;;;;;;42.50;21.70;;;;;;;;;;5069214;28;20601;-72
2021/12/13 04:56:54;;;;;;;44.90;22.75;;;;;;;;;;5069223;28;20046;-74
2021/12/13 04:59:21;;;;;;;41.88;22.42;;;;;;;;;;5069423;28;20079;-73
2021/12/13 05:01:51;;;;;;;37.03;19.90;;;;;;;;;;5069091;28;20057;-74
2021/12/13 05:04:18;;;;;;;38.70;20.90;;;;;;;;;;5069009;28;20059;-74
2021/12/13 05:06:45;;;;;;;43.72;20.73;;;;;;;;;;5069090;28;20059;-73
2021/12/13 05:09:13;;;;;;;40.58;21.60;;;;;;;;;;5068532;28;20053;-74
2021/12/13 05:11:48;;;;;;;41.00;21.63;;;;;;;;;;5068637;28;20075;-73
2021/12/13 05:14:15;;;;;;;38.55;20.65;;;;;;;;;;5069332;28;20140;-72
2021/12/13 05:16:52;;;;;;;51.42;24.70;;;;;;;;;;5068439;28;20057;-73
2021/12/13 05:19:34;;;;;;;40.83;20.43;;;;;;;;;;5068011;28;20053;-72
2021/12/13 05:22:03;;;;;;;39.28;20.60;;;;;;;;;;5069104;28;20049;-74
2021/12/13 05:24:30;;;;;;;38.65;20.77;;;;;;;;;;5068164;28;20055;-73
2021/12/13 05:27:04;;;;;;;53.35;24.98;;;;;;;;;;5068371;28;20064;-71
2021/12/13 05:29:35;;;;;;;40.95;21.10;;;;;;;;;;5067986;28;20184;-72
2021/12/13 05:32:10;;;;;;;37.85;20.90;;;;;;;;;;5068638;28;20071;-71
2021/12/13 05:34:39;;;;;;;38.33;20.48;;;;;;;;;;5068467;28;20061;-70
2021/12/13 05:37:06;;;;;;;56.67;26.25;;;;;;;;;;5069031;28;20578;-72
2021/12/13 05:39:35;;;;;;;43.78;21.52;;;;;;;;;;5068353;28;20053;-71
2021/12/13 05:42:10;;;;;;;41.80;20.40;;;;;;;;;;5067834;28;20528;-71
2021/12/13 05:44:41;;;;;;;36.60;19.42;;;;;;;;;;5067975;28;20271;-72
2021/12/13 05:47:16;;;;;;;34.63;20.20;;;;;;;;;;5068387;28;20045;-72
2021/12/13 05:49:43;;;;;;;34.35;19.25;;;;;;;;;;5068481;28;20061;-71
2021/12/13 05:52:24;;;;;;;34.50;17.48;;;;;;;;;;5068756;28;20052;-73
2021/12/13 05:54:52;;;;;;;38.78;18.42;;;;;;;;;;5067843;28;20059;-71
2021/12/13 05:57:21;;;;;;;37.50;19.45;;;;;;;;;;5065999;28;20083;-72
2021/12/13 05:59:50;;;;;;;34.47;18.48;;;;;;;;;;5069221;28;20055;-71
2021/12/13 06:02:18;;;;;;;38.85;19.10;;;;;;;;;;5067719;28;20059;-72
2021/12/13 06:04:58;;;;;;;38.55;19.75;;;;;;;;;;5068133;28;20136;-73
2021/12/13 06:07:30;;;;;;;30.73;18.27;;;;;;;;;;5067867;28;20049;-72
2021/12/13 06:10:01;;;;;;;35.88;18.30;;;;;;;;;;5067481;28;20624;-70
2021/12/13 06:12:40;;;;;;;36.67;19.17;;;;;;;;;;5067887;28;20048;-71
2021/12/13 06:15:20;;;;;;;42.03;20.42;;;;;;;;;;5067738;28;20056;-72
2021/12/13 06:17:52;;;;;;;30.67;17.48;;;;;;;;;;5068020;28;20065;-72
2021/12/13 06:20:33;;;;;;;33.25;19.02;;;;;;;;;;5066976;28;20053;-72
2021/12/13 06:23:04;;;;;;;40.22;19.58;;;;;;;;;;5068624;28;20063;-71
2021/12/13 06:25:31;;;;;;;36.08;20.33;;;;;;;;;;5068277;28;20056;-73
2021/12/13 06:27:59;;;;;;;38.65;19.85;;;;;;;;;;5066983;28;20059;-71
2021/12/13 06:30:27;;;;;;;34.70;18.73;;;;;;;;;;5067464;28;20525;-71
2021/12/13 06:33:01;;;;;;;38.78;20.23;;;;;;;;;;5067692;28;20626;-70
2021/12/13 06:35:33;;;;;;;39.40;18.73;;;;;;;;;;5066634;28;20085;-71
2021/12/13 06:38:19;;;;;;;41.13;19.52;;;;;;;;;;5067239;28;20061;-72
2021/12/13 06:40:49;;;;;;;37.90;20.02;;;;;;;;;;5066846;28;20083;-71
2021/12/13 06:43:35;;;;;;;43.88;22.08;;;;;;;;;;5067971;28;20064;-71
2021/12/13 06:46:03;;;;;;;36.38;19.88;;;;;;;;;;5067349;28;20053;-71
2021/12/13 06:48:50;;;;;;;36.83;19.85;;;;;;;;;;5067330;28;20056;-70
2021/12/13 06:51:17;;;;;;;39.03;20.65;;;;;;;;;;5067658;28;20079;-71
2021/12/13 06:54:02;;;;;;;38.90;19.30;;;;;;;;;;5067366;28;20614;-70
2021/12/13 06:56:32;;;;;;;37.05;19.63;;;;;;;;;;5070996;28;20053;-72
2021/12/13 06:58:59;;;;;;;45.83;21.33;;;;;;;;;;5071417;28;20057;-71
2021/12/13 07:01:26;;;;;;;40.30;20.10;;;;;;;;;;5070875;28;20091;-71
2021/12/13 07:03:55;;;;;;;39.15;20.52;;;;;;;;;;5070852;28;20057;-71
2021/12/13 07:06:21;;;;;;;;;;;;;;;;;;5070884;28;20087;-71
2021/12/13 07:08:59;;;;;;;35.13;18.98;;;;;;;;;;5070180;28;44407;-72
2021/12/13 07:11:37;;;;;;;46.28;21.75;;;;;;;;;;5070800;28;20057;-71
2021/12/13 07:14:05;;;;;;;39.97;20.25;;;;;;;;;;5070849;28;20060;-72
2021/12/13 07:16:33;;;;;;;42.35;20.63;;;;;;;;;;5070767;28;20056;-71
2021/12/13 07:19:08;;;;;;;41.55;19.58;;;;;;;;;;5071107;28;20515;-71
2021/12/13 07:21:42;;;;;;;43.03;20.45;;;;;;;;;;5070759;28;20053;-72
2021/12/13 07:24:13;;;;;;;39.28;18.77;;;;;;;;;;5070183;28;20139;-72
2021/12/13 07:26:42;;;;;;;41.60;21.13;;;;;;;;;;5070916;28;20059;-71
2021/12/13 07:29:11;;;;;;;44.78;20.88;;;;;;;;;;5070900;28;20798;-71
2021/12/13 07:31:39;;;;;;;41.28;20.25;;;;;;;;;;5070567;28;20049;-72
2021/12/13 07:34:07;;;;;;;46.42;21.00;;;;;;;;;;5070217;28;20053;-73
2021/12/13 07:36:33;;;;;;;44.00;21.35;;;;;;;;;;5070290;28;20132;-71
2021/12/13 07:39:02;;;;;;;38.97;19.50;;;;;;;;;;5070720;28;20106;-72
2021/12/13 07:41:50;;;;;;;42.95;19.90;;;;;;;;;;5069776;28;20079;-72
2021/12/13 07:44:35;;;;;;;46.70;21.80;;;;;;;;;;5070305;28;20044;-71
2021/12/13 07:47:13;;;;;;;43.92;21.02;;;;;;;;;;5069834;28;20143;-71
2021/12/13 07:49:42;;;;;;;48.08;20.42;;;;;;;;;;5070687;28;20107;-72
2021/12/13 07:52:10;;;;;;;43.38;20.45;;;;;;;;;;5070518;28;20055;-71
2021/12/13 07:54:41;;;;;;;47.20;22.40;;;;;;;;;;5070646;28;20052;-72
2021/12/13 07:57:17;;;;;;;48.47;21.15;;;;;;;;;;5069343;28;20041;-72
2021/12/13 07:59:43;;;;;;;50.20;21.10;;;;;;;;;;5070652;28;20099;-71
2021/12/13 08:02:17;;;;;;;44.15;21.92;;;;;;;;;;5069759;28;20515;-72
2021/12/13 08:04:46;;;;;;;43.10;20.25;;;;;;;;;;5069948;28;20053;-71
2021/12/13 08:07:17;;;;;;;44.95;20.83;;;;;;;;;;5069386;28;20064;-72
2021/12/13 08:09:45;;;;;;;46.47;21.30;;;;;;;;;;5070516;28;20049;-71
2021/12/13 08:12:17;;;;;;;43.88;20.08;;;;;;;;;;5070015;28;20063;-71
2021/12/13 08:14:44;;;;;;;41.92;20.77;;;;;;;;;;5070237;28;20138;-72
2021/12/13 08:17:31;;;;;;;52.97;22.65;;;;;;;;;;5069631;28;20084;-72
2021/12/13 08:20:04;;;;;;;41.10;19.80;;;;;;;;;;5070203;28;20053;-72
2021/12/13 08:22:31;;;;;;;40.28;19.52;;;;;;;;;;5069713;28;20049;-71
2021/12/13 08:24:59;;;;;;;46.05;22.35;;;;;;;;;;5069836;28;20055;-71
2021/12/13 08:27:35;;;;;;;42.50;19.38;;;;;;;;;;5068892;28;20053;-71
2021/12/13 08:30:04;;;;;;;38.53;18.90;;;;;;;;;;5069337;28;20052;-72
2021/12/13 08:32:30;;;;;;;39.90;18.70;;;;;;;;;;5069470;28;20052;-71
2021/12/13 08:34:58;;;;;;;40.20;19.60;;;;;;;;;;5069563;28;20060;-70
2021/12/13 08:37:30;;;;;;;43.40;19.15;;;;;;;;;;5069239;28;20049;-72
2021/12/13 08:40:03;;;;;;;42.15;19.00;;;;;;;;;;5069464;28;20049;-72
2021/12/13 08:42:31;;;;;;;39.22;17.92;;;;;;;;;;5069007;28;20059;-72
2021/12/13 08:45:03;;;;;;;36.05;17.05;;;;;;;;;;5069172;28;20139;-71
2021/12/13 08:47:50;;;;;;;38.25;18.80;;;;;;;;;;5068757;28;20180;-71
2021/12/13 08:50:23;;;;;;;46.97;18.30;;;;;;;;;;5068989;28;20138;-73
2021/12/13 08:52:54;;;;;;;37.17;17.73;;;;;;;;;;5068238;28;20107;-71
2021/12/13 08:55:28;;;;;;;41.65;18.33;;;;;;;;;;5069382;28;20068;-72
2021/12/13 08:58:11;;;;;;;40.85;17.38;;;;;;;;;;5068709;28;20923;-72
2021/12/13 09:00:47;;;;;;;36.17;17.27;;;;;;;;;;5069120;28;20057;-72
2021/12/13 09:03:23;;;;;;;40.38;19.48;;;;;;;;;;5068998;28;20671;-72
2021/12/13 09:05:52;;;;;;;40.95;18.23;;;;;;;;;;5068507;28;20057;-72
2021/12/13 09:08:24;;;;;;;37.03;17.30;;;;;;;;;;5069525;28;20063;-74
2021/12/13 09:10:56;;;;;;;36.55;17.33;;;;;;;;;;5068869;28;20071;-72
2021/12/13 09:13:46;;;;;;;41.67;17.70;;;;;;;;;;5066676;28;20064;-72
2021/12/13 09:16:17;;;;;;;36.60;17.23;;;;;;;;;;5056043;28;20083;-72
2021/12/13 09:18:43;;;;;;;36.58;18.15;;;;;;;;;;5060306;28;20057;-72
2021/12/13 09:21:10;;;;;;;35.58;17.67;;;;;;;;;;5060071;28;20087;-72
2021/12/13 09:23:42;;;;;;;38.50;17.25;;;;;;;;;;5067321;28;20048;-71
2021/12/13 09:26:12;;;;;;;37.28;17.73;;;;;;;;;;5066655;28;20096;-71
2021/12/13 09:28:50;;;;;;;37.20;17.75;;;;;;;;;;5069331;28;20057;-73
2021/12/13 09:31:25;;;;;;;37.35;17.25;;;;;;;;;;5064638;28;21954;-71
2021/12/13 09:34:14;;;;;;;39.40;16.95;;;;;;;;;;5058153;28;20506;-72
2021/12/13 09:36:42;;;;;;;37.90;17.20;;;;;;;;;;5058219;28;20427;-72
2021/12/13 09:39:16;;;;;;;37.20;17.00;;;;;;;;;;5065387;28;20049;-73
2021/12/13 09:41:46;;;;;;;35.08;16.80;;;;;;;;;;5062969;28;20526;-72
2021/12/13 09:44:44;;;;;;;37.42;17.27;;;;;;;;;;5067202;28;20147;-72
2021/12/13 09:47:13;;;;;;;36.10;15.73;;;;;;;;;;5064152;28;20059;-72
2021/12/13 09:49:48;;;;;;;34.95;16.90;;;;;;;;;;5067995;28;20060;-72
2021/12/13 09:52:14;;;;;;;30.80;15.35;;;;;;;;;;5067070;28;20052;-72
2021/12/13 09:54:43;;;;;;;30.20;15.63;;;;;;;;;;5068496;28;20063;-72
2021/12/13 09:57:14;;;;;;;35.15;16.50;;;;;;;;;;5068339;28;20712;-71
2021/12/13 10:00:04;;;;;;;29.52;15.55;;;;;;;;;;5068161;28;20059;-71
2021/12/13 10:02:39;;;;;;;34.58;16.20;;;;;;;;;;5066625;28;20044;-70
2021/12/13 10:05:07;;;;;;;29.48;14.80;;;;;;;;;;5068335;28;20100;-70
2021/12/13 10:07:36;;;;;;;35.75;16.45;;;;;;;;;;5069313;28;20172;-71
2021/12/13 10:10:07;;;;;;;31.70;14.95;;;;;;;;;;5067306;28;20052;-71
2021/12/13 10:12:39;;;;;;;30.85;14.93;;;;;;;;;;5068194;28;20144;-71
2021/12/13 10:15:12;;;;;;;30.38;15.23;;;;;;;;;;5068622;28;20049;-71
2021/12/13 10:17:40;;;;;;;28.50;14.43;;;;;;;;;;5067964;28;20098;-71
2021/12/13 10:20:10;;;;;;;30.85;14.63;;;;;;;;;;5068224;28;20047;-71
2021/12/13 10:22:37;;;;;;;27.80;14.60;;;;;;;;;;5068793;28;20057;-72
2021/12/13 10:25:06;;;;;;;29.20;14.77;;;;;;;;;;5088256;28;20060;-71
2021/12/13 10:27:33;;;;;;;29.40;15.02;;;;;;;;;;5072152;28;20203;-71
2021/12/13 10:30:01;;;;;;;33.70;15.18;;;;;;;;;;5063865;28;20061;-71
2021/12/13 10:32:29;;;;;;;32.47;14.30;;;;;;;;;;5068694;28;20064;-71
2021/12/13 10:35:02;;;;;;;27.52;13.43;;;;;;;;;;5063718;28;20175;-71
2021/12/13 10:37:31;;;;;;;26.80;13.35;;;;;;;;;;5064708;28;20537;-70
2021/12/13 10:39:59;;;;;;;25.15;14.00;;;;;;;;;;5061788;28;20176;-72
2021/12/13 10:42:33;;;;;;;27.65;13.38;;;;;;;;;;5049828;28;20057;-71
2021/12/13 10:45:00;;;;;;;25.48;14.05;;;;;;;;;;5060521;28;20131;-71
2021/12/13 10:47:29;;;;;;;25.30;12.43;;;;;;;;;;5070252;28;20052;-71
2021/12/13 10:49:58;;;;;;;24.30;12.85;;;;;;;;;;5063501;28;20497;-71
2021/12/13 10:52:31;;;;;;;30.42;14.18;;;;;;;;;;5064258;28;20075;-71
2021/12/13 10:54:59;;;;;;;26.58;12.95;;;;;;;;;;5057935;28;20058;-71
2021/12/13 10:57:30;;;;;;;24.55;11.70;;;;;;;;;;5066142;28;20057;-71
2021/12/13 10:59:58;;;;;;;24.58;12.30;;;;;;;;;;5066687;28;20064;-71
2021/12/13 11:02:26;;;;;;;24.38;12.75;;;;;;;;;;5068171;28;20056;-70
2021/12/13 11:04:55;;;;;;;32.45;13.68;;;;;;;;;;5082510;28;20060;-71
2021/12/13 11:07:22;;;;;;;26.85;13.60;;;;;;;;;;5068369;28;20053;-71
2021/12/13 11:09:49;;;;;;;23.90;12.70;;;;;;;;;;5068074;28;20130;-70
2021/12/13 11:12:21;;;;;;;24.35;12.40;;;;;;;;;;5063391;28;20052;-71
2021/12/13 11:14:49;;;;;;;29.85;13.15;;;;;;;;;;5047543;28;20055;-71
2021/12/13 11:17:17;;;;;;;27.55;12.10;;;;;;;;;;5047878;28;20063;-71
2021/12/13 11:19:47;;;;;;;24.55;12.80;;;;;;;;;;5047705;28;20514;-71
2021/12/13 11:22:19;;;;;;;21.88;11.88;;;;;;;;;;5055870;28;20128;-70
2021/12/13 11:24:47;;;;;;;21.08;11.40;;;;;;;;;;5065074;28;20144;-71
2021/12/13 11:27:15;;;;;;;22.38;11.45;;;;;;;;;;5066719;28;20049;-70
2021/12/13 11:29:42;;;;;;;22.48;12.73;;;;;;;;;;5061961;28;22123;-70
2021/12/13 11:32:34;;;;;;;23.70;12.10;;;;;;;;;;5066353;28;20500;-71
2021/12/13 11:35:06;;;;;;;23.38;11.50;;;;;;;;;;5067902;28;20140;-71
2021/12/13 11:37:33;;;;;;;27.67;12.02;;;;;;;;;;5067198;28;20420;-71
2021/12/13 11:40:22;;;;;;;26.38;12.07;;;;;;;;;;5058997;28;20244;-71
2021/12/13 11:43:10;;;;;;;20.02;10.73;;;;;;;;;;5068797;28;20052;-71
2021/12/13 11:45:38;;;;;;;;;;;;;;;;;;5058165;28;20053;-70
2021/12/13 11:48:23;;;;;;;23.45;11.02;;;;;;;;;;5050113;28;43813;-70
2021/12/13 11:51:08;;;;;;;22.40;10.68;;;;;;;;;;5070223;28;20446;-70
2021/12/13 11:53:38;;;;;;;22.55;10.88;;;;;;;;;;5070850;28;20060;-71
2021/12/13 11:56:19;;;;;;;22.33;10.73;;;;;;;;;;5068607;28;20053;-70
2021/12/13 11:59:01;;;;;;;23.25;10.45;;;;;;;;;;5052309;28;20090;-71
2021/12/13 12:01:36;;;;;;;21.83;10.65;;;;;;;;;;5089196;28;20950;-70
2021/12/13 12:04:22;;;;;;;20.05;9.95;;;;;;;;;;5051784;28;20053;-71
2021/12/13 12:07:15;;;;;;;20.27;10.40;;;;;;;;;;5067855;28;20059;-70
2021/12/13 12:09:45;;;;;;;23.63;9.85;;;;;;;;;;5076669;28;20057;-70
2021/12/13 12:12:20;;;;;;;20.90;10.02;;;;;;;;;;5077738;28;20055;-70
2021/12/13 12:14:48;;;;;;;19.73;9.73;;;;;;;;;;5081771;28;20053;-71
2021/12/13 12:17:14;;;;;;;19.53;10.00;;;;;;;;;;5068535;28;20864;-71
2021/12/13 12:19:41;;;;;;;18.38;9.68;;;;;;;;;;5088750;28;20058;-71
2021/12/13 12:22:07;;;;;;;19.67;9.63;;;;;;;;;;5084750;28;20051;-70
2021/12/13 12:24:35;;;;;;;18.27;9.82;;;;;;;;;;5080861;28;20134;-71
2021/12/13 12:27:07;;;;;;;20.05;10.00;;;;;;;;;;5058679;28;20557;-71
2021/12/13 12:29:38;;;;;;;19.10;9.85;;;;;;;;;;5064381;28;20052;-71
2021/12/13 12:32:16;;;;;;;19.48;9.30;;;;;;;;;;5078835;28;20063;-71
2021/12/13 12:34:54;;;;;;;22.90;9.85;;;;;;;;;;5089593;28;20064;-71
2021/12/13 12:37:41;;;;;;;22.25;9.20;;;;;;;;;;5084092;28;20422;-71
2021/12/13 12:40:07;;;;;;;32.40;12.73;;;;;;;;;;5053067;28;20076;-71
2021/12/13 12:42:34;;;;;;;19.35;8.65;;;;;;;;;;5068274;28;20868;-71
2021/12/13 12:45:12;;;;;;;16.15;8.93;;;;;;;;;;5070133;28;20136;-70
2021/12/13 12:47:57;;;;;;;21.00;8.75;;;;;;;;;;5076092;28;20135;-71
2021/12/13 12:50:30;;;;;;;19.75;8.82;;;;;;;;;;5077872;28;20057;-70
2021/12/13 12:52:59;;;;;;;17.30;8.80;;;;;;;;;;5065037;28;20514;-70
2021/12/13 12:55:38;;;;;;;17.02;9.07;;;;;;;;;;5072141;28;20057;-70
2021/12/13 12:58:26;;;;;;;19.42;8.82;;;;;;;;;;5065576;28;20053;-70
2021/12/13 13:00:53;;;;;;;;;;;;;;;;;;5056314;28;20054;-70
2021/12/13 13:03:30;;;;;;;21.58;8.50;;;;;;;;;;5048881;28;42860;-69
2021/12/13 13:06:11;;;;;;;15.85;8.35;;;;;;;;;;5070574;28;20049;-70
2021/12/13 13:08:39;;;;;;;18.50;8.68;;;;;;;;;;5073600;28;20053;-71
2021/12/13 13:11:27;;;;;;;19.23;8.75;;;;;;;;;;5089482;28;20044;-70
2021/12/13 13:13:55;;;;;;;16.27;8.57;;;;;;;;;;5081176;28;20049;-71
2021/12/13 13:16:29;;;;;;;18.40;8.68;;;;;;;;;;5048478;28;20061;-70
2021/12/13 13:18:56;;;;;;;18.95;9.20;;;;;;;;;;5053587;28;21006;-70
2021/12/13 13:21:23;;;;;;;20.23;9.43;;;;;;;;;;5059638;28;20073;-72
2021/12/13 13:23:52;;;;;;;18.63;9.10;;;;;;;;;;5049370;28;20201;-72
2021/12/13 13:26:21;;;;;;;16.38;9.07;;;;;;;;;;5069414;28;20059;-70
2021/12/13 13:28:50;;;;;;;16.77;9.48;;;;;;;;;;5055658;28;20049;-70
2021/12/13 13:31:22;;;;;;;19.38;9.40;;;;;;;;;;5070552;28;20060;-70
2021/12/13 13:33:51;;;;;;;19.05;10.07;;;;;;;;;;5060979;28;20147;-70
2021/12/13 13:36:45;;;;;;;18.25;8.68;;;;;;;;;;5079857;28;20499;-70
2021/12/13 13:39:12;;;;;;;19.88;9.43;;;;;;;;;;5040764;28;20081;-70
2021/12/13 13:41:38;;;;;;;15.90;8.25;;;;;;;;;;5050663;28;20049;-71
2021/12/13 13:44:09;;;;;;;17.33;8.52;;;;;;;;;;5078345;28;20056;-71
2021/12/13 13:46:37;;;;;;;16.60;8.98;;;;;;;;;;5056173;28;20142;-70
2021/12/13 13:49:06;;;;;;;17.20;8.73;;;;;;;;;;5067577;28;20144;-70
2021/12/13 13:51:33;;;;;;;18.58;8.27;;;;;;;;;;5067158;28;20132;-70
2021/12/13 13:54:00;;;;;;;18.88;9.35;;;;;;;;;;5069871;28;20064;-70
2021/12/13 13:56:28;;;;;;;16.13;8.27;;;;;;;;;;5082470;28;20051;-70
2021/12/13 13:59:01;;;;;;;17.98;9.63;;;;;;;;;;5076226;28;20056;-71
2021/12/13 14:01:27;;;;;;;17.10;8.48;;;;;;;;;;5080816;28;20139;-71
2021/12/13 14:03:55;;;;;;;16.17;8.80;;;;;;;;;;5082746;28;20063;-71
2021/12/13 14:06:30;;;;;;;17.52;8.52;;;;;;;;;;5055531;28;20228;-71
2021/12/13 14:08:59;;;;;;;17.75;7.93;;;;;;;;;;5078302;28;21026;-71
2021/12/13 14:11:25;;;;;;;16.55;8.38;;;;;;;;;;5086101;28;20058;-71
2021/12/13 14:13:53;;;;;;;19.83;8.68;;;;;;;;;;5068657;28;20431;-71
2021/12/13 14:16:21;;;;;;;17.48;8.20;;;;;;;;;;5064630;28;20053;-70
2021/12/13 14:18:47;;;;;;;14.90;7.97;;;;;;;;;;5068140;28;20133;-71
2021/12/13 14:21:16;;;;;;;12.82;7.57;;;;;;;;;;5073763;28;20053;-71
2021/12/13 14:23:44;;;;;;;19.85;8.45;;;;;;;;;;5069980;28;20049;-71
2021/12/13 14:26:11;;;;;;;16.23;8.05;;;;;;;;;;5065602;28;20128;-70
2021/12/13 14:28:43;;;;;;;17.08;8.40;;;;;;;;;;5047143;28;20049;-71
2021/12/13 14:31:30;;;;;;;16.52;8.10;;;;;;;;;;5047192;28;20097;-70
2021/12/13 14:34:02;;;;;;;14.15;7.00;;;;;;;;;;5047381;28;20063;-70
2021/12/13 14:36:34;;;;;;;17.27;7.35;;;;;;;;;;5065267;28;20506;-70
2021/12/13 14:39:09;;;;;;;13.55;7.43;;;;;;;;;;5067529;28;20047;-71
2021/12/13 14:41:38;;;;;;;15.23;7.78;;;;;;;;;;5066513;28;20083;-70
2021/12/13 14:44:06;;;;;;;17.92;7.93;;;;;;;;;;5057653;28;20057;-71
2021/12/13 14:46:39;;;;;;;14.27;8.65;;;;;;;;;;5057421;28;20060;-70
2021/12/13 14:49:07;;;;;;;16.13;8.18;;;;;;;;;;5052539;28;20053;-71
2021/12/13 14:51:42;;;;;;;16.45;8.30;;;;;;;;;;5046534;28;20064;-70
2021/12/13 14:54:10;;;;;;;19.17;8.98;;;;;;;;;;5048246;28;20152;-70
2021/12/13 14:56:38;;;;;;;15.30;7.68;;;;;;;;;;5065163;28;20059;-70